createdAt,value
2023-04-04T00:00:08.721Z,6.50
2023-04-04T00:00:18.779Z,7.70
2023-04-04T00:00:28.796Z,7.50
2023-04-04T00:00:39.434Z,8.90
2023-04-04T00:00:48.833Z,8.70
2023-04-04T00:00:58.840Z,8.60
2023-04-04T00:01:08.865Z,7.90
2023-04-04T00:01:19.023Z,9.20
2023-04-04T00:01:29.181Z,11.20
2023-04-04T00:01:39.361Z,11.30
2023-04-04T00:01:49.362Z,9.40
2023-04-04T00:01:59.536Z,8.30
2023-04-04T00:02:09.699Z,7.20
2023-04-04T00:02:19.900Z,7.60
2023-04-04T00:02:30.126Z,7.00
2023-04-04T00:02:40.192Z,10.50
2023-04-04T00:02:50.277Z,9.20
2023-04-04T00:03:00.282Z,8.70
2023-04-04T00:03:10.416Z,6.40
2023-04-04T00:03:20.571Z,7.30
2023-04-04T00:03:30.767Z,8.70
2023-04-04T00:03:40.892Z,9.90
2023-04-04T00:03:50.914Z,10.20
2023-04-04T00:04:00.892Z,8.50
2023-04-04T00:04:10.868Z,8.30
2023-04-04T00:04:20.904Z,8.70
2023-04-04T00:04:30.929Z,9.20
2023-04-04T00:04:41.000Z,7.00
2023-04-04T00:04:51.059Z,9.20
2023-04-04T00:05:01.230Z,9.20
2023-04-04T00:05:11.228Z,9.60
2023-04-04T00:05:21.271Z,8.70
2023-04-04T00:05:31.272Z,9.50
2023-04-04T00:05:41.392Z,9.50
2023-04-04T00:05:51.405Z,8.30
2023-04-04T00:06:01.409Z,8.10
2023-04-04T00:06:11.425Z,9.20
2023-04-04T00:06:21.429Z,9.20
2023-04-04T00:06:31.537Z,10.10
2023-04-04T00:06:41.547Z,8.80
2023-04-04T00:06:51.558Z,7.90
2023-04-04T00:07:01.597Z,7.20
2023-04-04T00:07:11.605Z,6.40
2023-04-04T00:07:21.614Z,7.00
2023-04-04T00:07:31.692Z,5.90
2023-04-04T00:07:41.707Z,6.40
2023-04-04T00:07:51.726Z,6.50
2023-04-04T00:08:01.719Z,8.30
2023-04-04T00:08:11.745Z,8.70
2023-04-04T00:08:21.751Z,8.20
2023-04-04T00:08:31.923Z,9.20
2023-04-04T00:08:41.936Z,10.10
2023-04-04T00:08:51.960Z,9.50
2023-04-04T00:09:01.986Z,7.00
2023-04-04T00:09:11.995Z,6.10
2023-04-04T00:09:22.162Z,7.40
2023-04-04T00:09:32.198Z,7.80
2023-04-04T00:09:42.200Z,7.10
2023-04-04T00:09:52.219Z,6.20
2023-04-04T00:10:02.243Z,6.30
2023-04-04T00:10:12.279Z,7.00
2023-04-04T00:10:22.268Z,9.60
2023-04-04T00:10:32.306Z,11.50
2023-04-04T00:10:42.735Z,10.80
2023-04-04T00:10:52.351Z,9.70
2023-04-04T00:11:02.444Z,6.70
2023-04-04T00:11:12.456Z,7.50
2023-04-04T00:11:22.466Z,6.20
2023-04-04T00:11:32.483Z,8.00
2023-04-04T00:11:42.530Z,11.00
2023-04-04T00:11:52.554Z,10.90
2023-04-04T00:12:02.568Z,9.00
2023-04-04T00:12:12.583Z,6.20
2023-04-04T00:12:24.266Z,8.00
2023-04-04T00:12:32.650Z,9.50
2023-04-04T00:12:42.662Z,9.30
2023-04-04T00:12:52.683Z,6.90
2023-04-04T00:13:02.708Z,7.10
2023-04-04T00:13:12.704Z,6.90
2023-04-04T00:13:22.740Z,9.40
2023-04-04T00:13:32.737Z,9.50
2023-04-04T00:13:42.911Z,8.90
2023-04-04T00:13:52.925Z,6.80
2023-04-04T00:14:03.206Z,5.60
2023-04-04T00:14:13.046Z,5.80
2023-04-04T00:14:23.064Z,5.90
2023-04-04T00:14:33.069Z,6.90
2023-04-04T00:14:43.069Z,7.40
2023-04-04T00:14:53.234Z,6.60
2023-04-04T00:15:03.479Z,10.00
2023-04-04T00:15:13.431Z,9.60
2023-04-04T00:15:23.611Z,10.70
2023-04-04T00:15:33.610Z,7.30
2023-04-04T00:15:43.779Z,7.50
2023-04-04T00:15:53.984Z,7.80
2023-04-04T00:16:03.945Z,8.80
2023-04-04T00:16:14.144Z,7.80
2023-04-04T00:16:24.285Z,8.20
2023-04-04T00:16:34.333Z,8.10
2023-04-04T00:16:44.322Z,9.90
2023-04-04T00:16:54.313Z,8.30
2023-04-04T00:17:04.314Z,8.10
2023-04-04T00:17:14.483Z,7.80
2023-04-04T00:17:24.655Z,7.40
2023-04-04T00:17:34.707Z,8.50
2023-04-04T00:17:44.715Z,7.80
2023-04-04T00:17:54.775Z,9.20
2023-04-04T00:18:04.776Z,9.00
2023-04-04T00:18:14.940Z,9.50
2023-04-04T00:18:24.957Z,8.50
2023-04-04T00:18:34.969Z,8.80
2023-04-04T00:18:44.988Z,9.10
2023-04-04T00:18:55.016Z,13.80
2023-04-04T00:19:05.043Z,12.70
2023-04-04T00:19:15.047Z,10.80
2023-04-04T00:19:25.051Z,7.40
2023-04-04T00:19:35.086Z,6.20
2023-04-04T00:19:45.071Z,7.10
2023-04-04T00:19:55.075Z,7.10
2023-04-04T00:20:05.129Z,7.10
2023-04-04T00:20:15.117Z,7.50
2023-04-04T00:20:25.132Z,8.00
2023-04-04T00:20:35.309Z,8.80
2023-04-04T00:20:45.317Z,7.10
2023-04-04T00:20:55.488Z,6.30
2023-04-04T00:21:05.490Z,6.70
2023-04-04T00:21:15.495Z,9.40
2023-04-04T00:21:25.532Z,8.80
2023-04-04T00:21:35.512Z,8.30
2023-04-04T00:21:45.509Z,6.70
2023-04-04T00:21:55.536Z,6.60
2023-04-04T00:22:05.535Z,6.50
2023-04-04T00:22:15.552Z,7.40
2023-04-04T00:22:25.547Z,9.00
2023-04-04T00:22:35.618Z,7.80
2023-04-04T00:22:45.619Z,8.10
2023-04-04T00:22:55.635Z,8.30
2023-04-04T00:23:05.634Z,9.20
2023-04-04T00:23:15.794Z,7.80
2023-04-04T00:23:25.801Z,6.40
2023-04-04T00:23:35.806Z,7.80
2023-04-04T00:23:45.807Z,7.90
2023-04-04T00:23:55.821Z,9.60
2023-04-04T00:24:05.844Z,8.10
2023-04-04T00:24:15.863Z,8.30
2023-04-04T00:24:26.033Z,6.70
2023-04-04T00:24:36.034Z,7.40
2023-04-04T00:24:46.059Z,9.00
2023-04-04T00:24:56.067Z,8.20
2023-04-04T00:25:06.240Z,7.50
2023-04-04T00:25:16.256Z,7.50
2023-04-04T00:25:26.271Z,8.80
2023-04-04T00:25:36.271Z,7.40
2023-04-04T00:25:46.285Z,7.60
2023-04-04T00:25:56.299Z,7.50
2023-04-04T00:26:06.305Z,9.40
2023-04-04T00:26:16.308Z,9.20
2023-04-04T00:26:26.319Z,8.90
2023-04-04T00:26:36.325Z,7.20
2023-04-04T00:26:46.343Z,7.40
2023-04-04T00:26:56.347Z,7.10
2023-04-04T00:27:06.354Z,6.90
2023-04-04T00:27:16.360Z,5.30
2023-04-04T00:27:26.548Z,5.60
2023-04-04T00:27:36.542Z,5.60
2023-04-04T00:27:46.550Z,6.40
2023-04-04T00:27:56.581Z,8.60
2023-04-04T00:28:06.608Z,9.50
2023-04-04T00:28:16.601Z,9.80
2023-04-04T00:28:26.608Z,8.00
2023-04-04T00:28:36.613Z,7.30
2023-04-04T00:28:46.620Z,6.40
2023-04-04T00:28:56.637Z,7.00
2023-04-04T00:29:06.653Z,6.80
2023-04-04T00:29:16.656Z,6.70
2023-04-04T00:29:26.683Z,5.50
2023-04-04T00:29:36.685Z,6.10
2023-04-04T00:29:46.710Z,6.10
2023-04-04T00:29:56.709Z,8.80
2023-04-04T00:30:06.715Z,9.40
2023-04-04T00:30:16.724Z,9.30
2023-04-04T00:30:26.751Z,8.60
2023-04-04T00:30:36.739Z,11.10
2023-04-04T00:30:46.752Z,12.20
2023-04-04T00:30:56.758Z,10.10
2023-04-04T00:31:06.960Z,7.80
2023-04-04T00:31:16.966Z,6.10
2023-04-04T00:31:26.979Z,6.80
2023-04-04T00:31:37.015Z,4.90
2023-04-04T00:31:47.031Z,5.80
2023-04-04T00:31:57.130Z,5.80
2023-04-04T00:32:07.143Z,7.10
2023-04-04T00:32:17.299Z,6.50
2023-04-04T00:32:27.408Z,7.20
2023-04-04T00:32:37.533Z,6.90
2023-04-04T00:32:47.635Z,7.20
2023-04-04T00:32:57.848Z,7.40
2023-04-04T00:33:07.925Z,6.80
2023-04-04T00:33:18.004Z,7.20
2023-04-04T00:33:28.080Z,6.10
2023-04-04T00:33:38.068Z,7.40
2023-04-04T00:33:48.094Z,6.80
2023-04-04T00:33:58.097Z,7.10
2023-04-04T00:34:08.123Z,7.70
2023-04-04T00:34:18.135Z,9.60
2023-04-04T00:34:28.158Z,9.40
2023-04-04T00:34:38.182Z,8.70
2023-04-04T00:34:48.195Z,8.00
2023-04-04T00:34:58.198Z,9.10
2023-04-04T00:35:08.212Z,8.60
2023-04-04T00:35:18.403Z,8.40
2023-04-04T00:35:28.419Z,7.00
2023-04-04T00:35:38.442Z,6.60
2023-04-04T00:35:48.516Z,6.90
2023-04-04T00:35:58.489Z,7.60
2023-04-04T00:36:08.516Z,7.80
2023-04-04T00:36:18.509Z,7.30
2023-04-04T00:36:28.540Z,7.30
2023-04-04T00:36:38.556Z,9.40
2023-04-04T00:36:48.633Z,9.00
2023-04-04T00:36:58.666Z,8.40
2023-04-04T00:37:08.685Z,6.30
2023-04-04T00:37:18.742Z,9.90
2023-04-04T00:37:28.752Z,9.80
2023-04-04T00:37:38.770Z,9.80
2023-04-04T00:37:48.792Z,6.00
2023-04-04T00:37:58.800Z,6.30
2023-04-04T00:38:08.807Z,6.00
2023-04-04T00:38:18.825Z,7.40
2023-04-04T00:38:28.842Z,7.70
2023-04-04T00:38:38.870Z,8.60
2023-04-04T00:38:48.895Z,8.70
2023-04-04T00:38:58.911Z,9.40
2023-04-04T00:39:08.915Z,9.00
2023-04-04T00:39:18.941Z,8.60
2023-04-04T00:39:28.950Z,9.20
2023-04-04T00:39:39.128Z,9.20
2023-04-04T00:39:49.150Z,8.00
2023-04-04T00:39:59.314Z,6.50
2023-04-04T00:40:09.333Z,7.80
2023-04-04T00:40:19.350Z,9.60
2023-04-04T00:40:29.356Z,10.00
2023-04-04T00:40:39.546Z,8.60
2023-04-04T00:40:49.420Z,6.20
2023-04-04T00:40:59.443Z,7.10
2023-04-04T00:41:09.470Z,6.90
2023-04-04T00:41:19.475Z,8.90
2023-04-04T00:41:29.526Z,7.90
2023-04-04T00:41:39.563Z,7.80
2023-04-04T00:41:49.569Z,6.40
2023-04-04T00:41:59.588Z,5.50
2023-04-04T00:42:09.611Z,8.10
2023-04-04T00:42:19.619Z,8.60
2023-04-04T00:42:29.653Z,9.10
2023-04-04T00:42:39.649Z,8.10
2023-04-04T00:42:49.699Z,9.10
2023-04-04T00:42:59.684Z,8.40
2023-04-04T00:43:09.692Z,6.20
2023-04-04T00:43:19.698Z,5.30
2023-04-04T00:43:29.699Z,6.50
2023-04-04T00:43:39.701Z,6.40
2023-04-04T00:43:49.718Z,6.00
2023-04-04T00:43:59.886Z,6.80
2023-04-04T00:44:09.892Z,6.40
2023-04-04T00:44:19.901Z,6.50
2023-04-04T00:44:30.082Z,6.70
2023-04-04T00:44:40.073Z,7.80
2023-04-04T00:44:50.179Z,8.10
2023-04-04T00:45:00.194Z,9.50
2023-04-04T00:45:10.261Z,9.80
2023-04-04T00:45:20.266Z,11.70
2023-04-04T00:45:30.279Z,9.20
2023-04-04T00:45:40.317Z,10.20
2023-04-04T00:45:50.344Z,8.30
2023-04-04T00:46:00.371Z,7.80
2023-04-04T00:46:10.382Z,6.90
2023-04-04T00:46:20.387Z,6.40
2023-04-04T00:46:30.565Z,6.90
2023-04-04T00:46:40.573Z,6.80
2023-04-04T00:46:50.609Z,7.80
2023-04-04T00:47:00.611Z,6.90
2023-04-04T00:47:10.630Z,7.00
2023-04-04T00:47:20.629Z,6.90
2023-04-04T00:47:30.662Z,8.10
2023-04-04T00:47:40.687Z,8.60
2023-04-04T00:47:50.691Z,9.20
2023-04-04T00:48:00.685Z,7.80
2023-04-04T00:48:10.847Z,6.50
2023-04-04T00:48:21.014Z,6.80
2023-04-04T00:48:31.052Z,7.40
2023-04-04T00:48:41.228Z,7.80
2023-04-04T00:48:51.252Z,6.50
2023-04-04T00:49:01.266Z,7.70
2023-04-04T00:49:11.310Z,7.30
2023-04-04T00:49:21.491Z,7.40
2023-04-04T00:49:31.476Z,6.20
2023-04-04T00:49:41.488Z,8.90
2023-04-04T00:49:51.507Z,9.30
2023-04-04T00:50:01.520Z,10.60
2023-04-04T00:50:11.538Z,9.50
2023-04-04T00:50:21.532Z,9.50
2023-04-04T00:50:31.547Z,9.10
2023-04-04T00:50:41.732Z,8.50
2023-04-04T00:50:51.563Z,8.60
2023-04-04T00:51:01.740Z,6.50
2023-04-04T00:51:11.741Z,6.00
2023-04-04T00:51:21.913Z,4.90
2023-04-04T00:51:31.971Z,7.70
2023-04-04T00:51:42.149Z,7.40
2023-04-04T00:51:52.164Z,8.00
2023-04-04T00:52:02.366Z,6.80
2023-04-04T00:52:12.354Z,7.70
2023-04-04T00:52:22.597Z,6.30
2023-04-04T00:52:32.619Z,5.20
2023-04-04T00:52:42.617Z,4.40
2023-04-04T00:52:52.644Z,5.30
2023-04-04T00:53:02.690Z,7.70
2023-04-04T00:53:12.695Z,6.80
2023-04-04T00:53:22.760Z,7.90
2023-04-04T00:53:32.706Z,6.70
2023-04-04T00:53:42.741Z,7.50
2023-04-04T00:53:52.750Z,7.30
2023-04-04T00:54:02.928Z,7.70
2023-04-04T00:54:12.985Z,8.80
2023-04-04T00:54:22.962Z,8.90
2023-04-04T00:54:33.115Z,7.60
2023-04-04T00:54:43.288Z,7.90
2023-04-04T00:54:53.349Z,6.90
2023-04-04T00:55:03.542Z,6.20
2023-04-04T00:55:13.518Z,6.00
2023-04-04T00:55:23.731Z,5.70
2023-04-04T00:55:33.704Z,7.80
2023-04-04T00:55:43.880Z,6.70
2023-04-04T00:55:53.862Z,8.40
2023-04-04T00:56:03.892Z,6.50
2023-04-04T00:56:13.904Z,7.80
2023-04-04T00:56:24.075Z,6.00
2023-04-04T00:56:34.076Z,6.40
2023-04-04T00:56:44.091Z,9.40
2023-04-04T00:56:54.096Z,10.40
2023-04-04T00:57:04.174Z,11.50
2023-04-04T00:57:14.141Z,8.20
2023-04-04T00:57:24.306Z,7.90
2023-04-04T00:57:34.341Z,7.00
2023-04-04T00:57:44.321Z,6.40
2023-04-04T00:57:54.364Z,7.40
2023-04-04T00:58:04.376Z,8.90
2023-04-04T00:58:14.393Z,8.80
2023-04-04T00:58:24.395Z,7.30
2023-04-04T00:58:34.559Z,6.70
2023-04-04T00:58:44.714Z,7.20
2023-04-04T00:58:54.916Z,8.10
2023-04-04T00:59:05.138Z,7.20
2023-04-04T00:59:15.168Z,7.70
2023-04-04T00:59:25.198Z,8.40
2023-04-04T00:59:35.240Z,8.50
2023-04-04T00:59:45.305Z,8.90
2023-04-04T00:59:55.474Z,8.80
2023-04-04T01:00:05.535Z,10.70
2023-04-04T01:00:15.519Z,8.40
2023-04-04T01:00:25.514Z,9.40
2023-04-04T01:00:35.521Z,6.30
2023-04-04T01:00:45.644Z,8.00
2023-04-04T01:00:55.746Z,7.20
2023-04-04T01:01:05.759Z,7.80
2023-04-04T01:01:15.821Z,6.90
2023-04-04T01:01:25.893Z,7.20
2023-04-04T01:01:36.018Z,7.10
2023-04-04T01:01:46.017Z,7.70
2023-04-04T01:01:56.202Z,7.80
2023-04-04T01:02:06.354Z,7.70
2023-04-04T01:02:16.514Z,5.80
2023-04-04T01:02:26.662Z,6.60
2023-04-04T01:02:36.793Z,8.20
2023-04-04T01:02:46.955Z,8.90
2023-04-04T01:02:57.116Z,7.10
2023-04-04T01:03:07.278Z,6.30
2023-04-04T01:03:17.260Z,5.90
2023-04-04T01:03:27.377Z,8.20
2023-04-04T01:03:37.510Z,9.10
2023-04-04T01:03:47.630Z,11.00
2023-04-04T01:03:57.820Z,11.30
2023-04-04T01:04:07.865Z,11.30
2023-04-04T01:04:17.926Z,9.00
2023-04-04T01:04:27.977Z,6.70
2023-04-04T01:04:38.009Z,5.90
2023-04-04T01:04:47.996Z,6.80
2023-04-04T01:04:58.012Z,6.70
2023-04-04T01:05:08.035Z,7.20
2023-04-04T01:05:18.050Z,7.60
2023-04-04T01:05:28.079Z,8.00
2023-04-04T01:05:38.142Z,7.30
2023-04-04T01:05:48.155Z,6.80
2023-04-04T01:05:58.167Z,7.10
2023-04-04T01:06:08.187Z,8.90
2023-04-04T01:06:18.228Z,8.40
2023-04-04T01:06:28.217Z,7.60
2023-04-04T01:06:38.217Z,6.40
2023-04-04T01:06:48.273Z,7.10
2023-04-04T01:06:58.294Z,10.60
2023-04-04T01:07:08.316Z,10.40
2023-04-04T01:07:18.456Z,10.70
2023-04-04T01:07:28.463Z,9.30
2023-04-04T01:07:38.477Z,8.70
2023-04-04T01:07:48.537Z,8.10
2023-04-04T01:07:58.645Z,7.10
2023-04-04T01:08:08.641Z,8.70
2023-04-04T01:08:18.651Z,10.30
2023-04-04T01:08:28.675Z,10.20
2023-04-04T01:08:38.670Z,9.30
2023-04-04T01:08:48.703Z,7.70
2023-04-04T01:08:58.724Z,8.60
2023-04-04T01:09:08.888Z,7.90
2023-04-04T01:09:18.897Z,10.30
2023-04-04T01:09:28.903Z,8.60
2023-04-04T01:09:38.920Z,9.10
2023-04-04T01:09:49.019Z,8.30
2023-04-04T01:09:59.111Z,8.30
2023-04-04T01:10:09.136Z,7.70
2023-04-04T01:10:19.144Z,7.80
2023-04-04T01:10:29.155Z,10.70
2023-04-04T01:10:39.561Z,11.60
2023-04-04T01:10:49.169Z,9.10
2023-04-04T01:10:59.178Z,7.10
2023-04-04T01:11:09.200Z,6.50
2023-04-04T01:11:19.220Z,7.40
2023-04-04T01:11:29.240Z,9.20
2023-04-04T01:11:39.243Z,10.10
2023-04-04T01:11:49.259Z,9.10
2023-04-04T01:11:59.270Z,6.30
2023-04-04T01:12:09.278Z,4.90
2023-04-04T01:12:19.316Z,5.50
2023-04-04T01:12:29.318Z,5.90
2023-04-04T01:12:39.344Z,6.80
2023-04-04T01:12:49.374Z,7.50
2023-04-04T01:12:59.389Z,8.00
2023-04-04T01:13:09.421Z,10.10
2023-04-04T01:13:19.439Z,10.00
2023-04-04T01:13:29.459Z,11.50
2023-04-04T01:13:39.477Z,9.70
2023-04-04T01:13:49.535Z,9.90
2023-04-04T01:13:59.593Z,8.70
2023-04-04T01:14:09.594Z,7.90
2023-04-04T01:14:19.611Z,7.30
2023-04-04T01:14:29.635Z,6.60
2023-04-04T01:14:39.638Z,7.60
2023-04-04T01:14:49.686Z,9.40
2023-04-04T01:14:59.700Z,9.80
2023-04-04T01:15:09.682Z,9.40
2023-04-04T01:15:19.719Z,9.20
2023-04-04T01:15:29.715Z,8.10
2023-04-04T01:15:39.749Z,10.20
2023-04-04T01:15:49.773Z,9.60
2023-04-04T01:15:59.788Z,11.10
2023-04-04T01:16:09.855Z,7.70
2023-04-04T01:16:19.901Z,7.20
2023-04-04T01:16:29.965Z,8.60
2023-04-04T01:16:40.047Z,9.30
2023-04-04T01:16:50.062Z,9.40
2023-04-04T01:17:00.253Z,6.60
2023-04-04T01:17:10.211Z,8.60
2023-04-04T01:17:20.229Z,9.70
2023-04-04T01:17:30.288Z,10.20
2023-04-04T01:17:40.338Z,9.50
2023-04-04T01:17:50.423Z,12.20
2023-04-04T01:18:00.502Z,10.80
2023-04-04T01:18:10.560Z,11.70
2023-04-04T01:18:20.546Z,9.90
2023-04-04T01:18:30.577Z,12.40
2023-04-04T01:18:40.617Z,11.60
2023-04-04T01:18:50.626Z,15.00
2023-04-04T01:19:00.652Z,13.60
2023-04-04T01:19:10.681Z,14.10
2023-04-04T01:19:20.695Z,12.00
2023-04-04T01:19:30.731Z,11.60
2023-04-04T01:19:40.735Z,10.50
2023-04-04T01:19:50.753Z,10.10
2023-04-04T01:20:00.837Z,13.20
2023-04-04T01:20:10.856Z,12.70
2023-04-04T01:20:20.932Z,11.40
2023-04-04T01:20:30.937Z,9.20
2023-04-04T01:20:41.049Z,9.10
2023-04-04T01:20:50.999Z,8.90
2023-04-04T01:21:01.004Z,7.90
2023-04-04T01:21:11.037Z,7.60
2023-04-04T01:21:21.054Z,7.40
2023-04-04T01:21:31.141Z,8.10
2023-04-04T01:21:41.201Z,9.70
2023-04-04T01:21:51.219Z,10.70
2023-04-04T01:22:01.259Z,10.20
2023-04-04T01:22:11.247Z,8.80
2023-04-04T01:22:21.301Z,6.40
2023-04-04T01:22:31.288Z,6.90
2023-04-04T01:22:41.325Z,6.90
2023-04-04T01:22:51.363Z,8.50
2023-04-04T01:23:01.374Z,9.10
2023-04-04T01:23:11.391Z,8.80
2023-04-04T01:23:21.409Z,10.50
2023-04-04T01:23:31.448Z,8.40
2023-04-04T01:23:41.433Z,9.40
2023-04-04T01:23:51.482Z,7.70
2023-04-04T01:24:01.501Z,8.50
2023-04-04T01:24:11.508Z,9.20
2023-04-04T01:24:21.670Z,8.40
2023-04-04T01:24:31.678Z,7.60
2023-04-04T01:24:41.708Z,6.60
2023-04-04T01:24:51.735Z,7.70
2023-04-04T01:25:01.717Z,8.40
2023-04-04T01:25:11.735Z,7.50
2023-04-04T01:25:21.774Z,6.90
2023-04-04T01:25:31.812Z,5.60
2023-04-04T01:25:41.834Z,6.10
2023-04-04T01:25:51.852Z,6.60
2023-04-04T01:26:01.870Z,7.80
2023-04-04T01:26:11.883Z,7.70
2023-04-04T01:26:21.900Z,7.70
2023-04-04T01:26:31.925Z,6.20
2023-04-04T01:26:42.003Z,8.50
2023-04-04T01:26:52.015Z,8.10
2023-04-04T01:27:02.028Z,9.70
2023-04-04T01:27:12.031Z,8.50
2023-04-04T01:27:22.109Z,7.60
2023-04-04T01:27:32.100Z,6.80
2023-04-04T01:27:42.123Z,5.30
2023-04-04T01:27:52.129Z,6.80
2023-04-04T01:28:02.160Z,8.00
2023-04-04T01:28:12.178Z,8.40
2023-04-04T01:28:22.189Z,7.50
2023-04-04T01:28:32.198Z,7.40
2023-04-04T01:28:42.194Z,6.10
2023-04-04T01:28:52.231Z,5.90
2023-04-04T01:29:02.255Z,5.00
2023-04-04T01:29:12.283Z,5.90
2023-04-04T01:29:22.301Z,5.80
2023-04-04T01:29:32.316Z,7.40
2023-04-04T01:29:42.354Z,7.20
2023-04-04T01:29:52.366Z,7.40
2023-04-04T01:30:02.371Z,6.90
2023-04-04T01:30:12.396Z,10.10
2023-04-04T01:30:22.399Z,10.40
2023-04-04T01:30:32.630Z,9.70
2023-04-04T01:30:42.927Z,7.30
2023-04-04T01:30:52.761Z,8.80
2023-04-04T01:31:02.899Z,7.80
2023-04-04T01:31:12.897Z,8.00
2023-04-04T01:31:23.127Z,7.50
2023-04-04T01:31:33.091Z,9.90
2023-04-04T01:31:43.099Z,10.30
2023-04-04T01:31:53.110Z,9.00
2023-04-04T01:32:03.151Z,10.40
2023-04-04T01:32:13.263Z,9.60
2023-04-04T01:32:23.246Z,10.80
2023-04-04T01:32:33.288Z,10.80
2023-04-04T01:32:43.293Z,11.50
2023-04-04T01:32:53.368Z,11.60
2023-04-04T01:33:03.363Z,10.10
2023-04-04T01:33:13.379Z,9.80
2023-04-04T01:33:23.413Z,10.70
2023-04-04T01:33:33.442Z,10.30
2023-04-04T01:33:43.473Z,12.20
2023-04-04T01:33:53.544Z,10.80
2023-04-04T01:34:03.565Z,10.20
2023-04-04T01:34:13.609Z,9.00
2023-04-04T01:34:23.728Z,9.40
2023-04-04T01:34:33.733Z,10.50
2023-04-04T01:34:43.743Z,12.40
2023-04-04T01:34:53.768Z,12.20
2023-04-04T01:35:03.789Z,12.60
2023-04-04T01:35:13.955Z,9.30
2023-04-04T01:35:24.138Z,7.60
2023-04-04T01:35:34.159Z,5.70
2023-04-04T01:35:44.313Z,6.40
2023-04-04T01:35:54.547Z,10.40
2023-04-04T01:36:04.619Z,10.80
2023-04-04T01:36:15.791Z,9.90
2023-04-04T01:36:24.801Z,7.10
2023-04-04T01:36:34.829Z,8.10
2023-04-04T01:36:44.829Z,8.40
2023-04-04T01:36:55.004Z,8.10
2023-04-04T01:37:05.000Z,8.40
2023-04-04T01:37:15.082Z,8.10
2023-04-04T01:37:25.087Z,8.90
2023-04-04T01:37:35.260Z,7.60
2023-04-04T01:37:45.339Z,9.50
2023-04-04T01:37:55.522Z,12.10
2023-04-04T01:38:05.529Z,11.50
2023-04-04T01:38:15.549Z,10.10
2023-04-04T01:38:25.722Z,7.90
2023-04-04T01:38:35.900Z,8.70
2023-04-04T01:38:45.899Z,7.40
2023-04-04T01:38:55.895Z,7.00
2023-04-04T01:39:05.897Z,7.70
2023-04-04T01:39:15.904Z,7.70
2023-04-04T01:39:26.069Z,8.70
2023-04-04T01:39:36.138Z,8.00
2023-04-04T01:39:46.295Z,8.80
2023-04-04T01:39:56.474Z,8.10
2023-04-04T01:40:06.515Z,6.70
2023-04-04T01:40:16.497Z,7.30
2023-04-04T01:40:26.523Z,6.90
2023-04-04T01:40:36.544Z,7.90
2023-04-04T01:40:46.667Z,8.90
2023-04-04T01:40:56.697Z,8.70
2023-04-04T01:41:06.710Z,7.80
2023-04-04T01:41:16.722Z,7.30
2023-04-04T01:41:26.731Z,6.80
2023-04-04T01:41:36.739Z,7.60
2023-04-04T01:41:46.769Z,8.30
2023-04-04T01:41:56.910Z,9.30
2023-04-04T01:42:06.834Z,9.60
2023-04-04T01:42:16.885Z,9.00
2023-04-04T01:42:26.881Z,8.90
2023-04-04T01:42:36.901Z,8.40
2023-04-04T01:42:46.942Z,8.00
2023-04-04T01:42:56.973Z,9.00
2023-04-04T01:43:06.993Z,8.30
2023-04-04T01:43:17.015Z,8.30
2023-04-04T01:43:27.042Z,7.00
2023-04-04T01:43:37.098Z,8.90
2023-04-04T01:43:47.115Z,7.90
2023-04-04T01:43:57.142Z,8.50
2023-04-04T01:44:07.187Z,7.40
2023-04-04T01:44:17.204Z,7.70
2023-04-04T01:44:27.237Z,7.80
2023-04-04T01:44:37.250Z,7.30
2023-04-04T01:44:47.308Z,7.00
2023-04-04T01:44:57.293Z,7.30
2023-04-04T01:45:07.318Z,9.80
2023-04-04T01:45:17.441Z,11.00
2023-04-04T01:45:27.455Z,11.60
2023-04-04T01:45:37.474Z,8.90
2023-04-04T01:45:47.515Z,8.10
2023-04-04T01:45:57.528Z,7.20
2023-04-04T01:46:07.590Z,7.30
2023-04-04T01:46:54.866Z,7.10
2023-04-04T01:47:04.890Z,7.20
2023-04-04T01:47:14.907Z,8.80
2023-04-04T01:47:24.969Z,9.10
2023-04-04T01:47:35.014Z,11.50
2023-04-04T01:47:45.086Z,10.00
2023-04-04T01:47:55.155Z,13.50
2023-04-04T01:48:05.249Z,10.40
2023-04-04T01:48:15.249Z,10.20
2023-04-04T01:48:25.276Z,6.40
2023-04-04T01:48:35.318Z,7.00
2023-04-04T01:48:45.350Z,7.90
2023-04-04T01:48:55.401Z,11.50
2023-04-04T01:49:05.481Z,12.30
2023-04-04T01:49:15.516Z,12.30
2023-04-04T01:49:25.553Z,9.60
2023-04-04T01:49:35.596Z,10.30
2023-04-04T01:49:45.633Z,10.00
2023-04-04T01:49:55.682Z,8.80
2023-04-04T01:50:05.716Z,7.20
2023-04-04T01:50:15.768Z,8.20
2023-04-04T01:50:25.881Z,9.60
2023-04-04T01:50:36.005Z,9.70
2023-04-04T01:50:46.083Z,7.30
2023-04-04T01:50:56.118Z,5.50
2023-04-04T01:51:06.187Z,6.40
2023-04-04T01:51:16.208Z,9.20
2023-04-04T01:51:26.245Z,11.40
2023-04-04T01:51:36.293Z,11.10
2023-04-04T01:51:46.340Z,10.00
2023-04-04T01:51:56.386Z,8.50
2023-04-04T01:52:06.417Z,7.30
2023-04-04T01:52:16.462Z,7.30
2023-04-04T01:52:26.501Z,7.50
2023-04-04T01:52:36.564Z,8.30
2023-04-04T01:52:46.600Z,7.60
2023-04-04T01:52:56.652Z,9.10
2023-04-04T01:53:06.676Z,10.70
2023-04-04T01:53:16.713Z,11.70
2023-04-04T01:53:26.827Z,9.70
2023-04-04T01:53:36.863Z,9.70
2023-04-04T01:53:46.962Z,9.70
2023-04-04T01:53:57.071Z,9.50
2023-04-04T01:54:07.106Z,9.30
2023-04-04T01:54:17.142Z,9.80
2023-04-04T01:54:27.192Z,10.50
2023-04-04T01:54:37.247Z,9.00
2023-04-04T01:54:47.298Z,7.20
2023-04-04T01:54:57.320Z,6.00
2023-04-04T01:55:07.357Z,5.90
2023-04-04T01:55:17.420Z,6.20
2023-04-04T01:55:27.459Z,6.70
2023-04-04T01:55:37.489Z,6.10
2023-04-04T01:55:47.526Z,6.00
2023-04-04T01:55:57.540Z,6.20
2023-04-04T01:56:07.608Z,6.60
2023-04-04T01:56:17.641Z,7.50
2023-04-04T01:56:27.674Z,6.80
2023-04-04T01:56:37.725Z,8.00
2023-04-04T01:56:47.735Z,7.00
2023-04-04T01:56:57.776Z,7.30
2023-04-04T01:57:07.805Z,7.20
2023-04-04T01:57:17.847Z,8.90
2023-04-04T01:57:27.884Z,8.60
2023-04-04T01:57:37.955Z,9.30
2023-04-04T01:57:47.990Z,8.50
2023-04-04T01:57:58.018Z,9.20
2023-04-04T01:58:08.055Z,9.10
2023-04-04T01:58:18.125Z,9.00
2023-04-04T01:58:28.194Z,8.60
2023-04-04T01:58:38.234Z,8.00
2023-04-04T01:58:48.296Z,8.30
2023-04-04T01:58:58.336Z,9.40
2023-04-04T01:59:08.410Z,10.70
2023-04-04T01:59:18.495Z,9.00
2023-04-04T01:59:28.609Z,8.10
2023-04-04T01:59:38.527Z,6.80
2023-04-04T01:59:48.557Z,8.10
2023-04-04T01:59:58.611Z,7.50
2023-04-04T02:00:08.746Z,6.30
2023-04-04T02:00:18.764Z,6.30
2023-04-04T02:00:28.793Z,8.40
2023-04-04T02:00:39.058Z,8.10
2023-04-04T02:00:48.967Z,8.30
2023-04-04T02:00:59.520Z,8.90
2023-04-04T02:01:09.056Z,9.90
2023-04-04T02:01:19.109Z,10.50
2023-04-04T02:01:29.193Z,8.60
2023-04-04T02:01:39.203Z,8.30
2023-04-04T02:01:49.245Z,8.80
2023-04-04T02:02:09.375Z,11.40
2023-04-04T02:02:19.401Z,10.90
2023-04-04T02:02:29.464Z,7.50
2023-04-04T02:02:39.539Z,8.30
2023-04-04T02:02:49.655Z,8.90
2023-04-04T02:02:59.699Z,8.80
2023-04-04T02:03:09.702Z,8.90
2023-04-04T02:03:19.729Z,8.60
2023-04-04T02:03:29.778Z,7.50
2023-04-04T02:03:39.852Z,8.90
2023-04-04T02:03:49.881Z,8.00
2023-04-04T02:03:59.939Z,9.70
2023-04-04T02:04:09.985Z,9.00
2023-04-04T02:04:19.994Z,10.00
2023-04-04T02:04:30.060Z,8.70
2023-04-04T02:04:40.062Z,8.80
2023-04-04T02:04:50.135Z,9.00
2023-04-04T02:05:00.175Z,9.30
2023-04-04T02:05:10.215Z,10.50
2023-04-04T02:05:20.263Z,9.60
2023-04-04T02:05:30.293Z,9.60
2023-04-04T02:05:40.333Z,6.60
2023-04-04T02:05:50.375Z,6.60
2023-04-04T02:06:00.401Z,7.70
2023-04-04T02:06:10.441Z,9.30
2023-04-04T02:06:20.477Z,9.00
2023-04-04T02:06:30.512Z,10.50
2023-04-04T02:06:40.538Z,8.80
2023-04-04T02:06:50.623Z,8.50
2023-04-04T02:07:00.656Z,6.80
2023-04-04T02:07:10.738Z,7.00
2023-04-04T02:07:20.759Z,8.00
2023-04-04T02:07:30.780Z,6.50
2023-04-04T02:07:40.816Z,6.80
2023-04-04T02:07:50.873Z,5.40
2023-04-04T02:08:00.923Z,7.50
2023-04-04T02:08:10.965Z,8.40
2023-04-04T02:08:21.006Z,8.80
2023-04-04T02:08:31.042Z,7.20
2023-04-04T02:08:41.092Z,5.70
2023-04-04T02:08:51.126Z,6.10
2023-04-04T02:09:01.152Z,6.60
2023-04-04T02:09:11.200Z,9.50
2023-04-04T02:09:21.227Z,8.80
2023-04-04T02:09:31.272Z,9.70
2023-04-04T02:09:41.354Z,8.30
2023-04-04T02:09:51.400Z,8.10
2023-04-04T02:10:01.436Z,7.80
2023-04-04T02:10:11.489Z,6.50
2023-04-04T02:10:21.560Z,7.70
2023-04-04T02:10:31.583Z,8.80
2023-04-04T02:10:41.956Z,8.90
2023-04-04T02:10:51.672Z,8.80
2023-04-04T02:11:01.714Z,8.80
2023-04-04T02:11:11.754Z,9.20
2023-04-04T02:11:21.818Z,8.50
2023-04-04T02:11:31.831Z,8.40
2023-04-04T02:11:41.884Z,7.80
2023-04-04T02:11:51.886Z,7.30
2023-04-04T02:12:01.920Z,6.60
2023-04-04T02:12:11.995Z,8.10
2023-04-04T02:12:22.004Z,10.40
2023-04-04T02:12:32.043Z,10.00
2023-04-04T02:12:42.110Z,10.70
2023-04-04T02:12:52.167Z,9.60
2023-04-04T02:13:02.209Z,9.10
2023-04-04T02:13:12.243Z,9.90
2023-04-04T02:13:22.283Z,10.20
2023-04-04T02:13:32.347Z,11.10
2023-04-04T02:13:42.433Z,9.30
2023-04-04T02:13:52.484Z,7.80